KDPG/DPG METAR and TAF weather

Enter ICAO airport designator
Station Type Date Time Source
KDPG METAR 2020/12/03 23:50 UTC NOAA

KDPG 032350Z 19004KT 50SM SKC 02/M12 A3043 RMK SLP338 T00151119 10053 21005 56007 LAST


Station Type Date Time Source
KDPG Decoded METAR 2020/12/03 23:50 UTC NOAA

Dugway Proving Grounds, UT, United States (KDPG) 40-10N 112-56W 1325M
Dec 03, 2020 - 06:50 PM EST / 2020.12.03 2350 UTC
Wind: from the S (190 degrees) at 5 MPH (4 KT):0
Visibility: 50 mile(s):0
Sky conditions: clear
Temperature: 34.7 F (1.5 C)
Windchill: 30 F (-1 C):1
Dew Point: 10.6 F (-11.9 C)
Relative Humidity: 36%
Pressure (altimeter): 30.43 in. Hg (1030 hPa)
Pressure tendency: 0.02 inches (0.7 hPa) lower than three hours ago
ob: KDPG 032350Z 19004KT 50SM SKC 02/M12 A3043 RMK SLP338 T00151119 10053 21005 56007 LAST
cycle: 0

Station Type Date Time Source
KDPG TAF UTC NOAA

Error!

Example: see airport list